Time;durP1;ratioP1;P1;durP2;ratioP2;P2;SDS_P1;SDS_P2;PMS_P1;PMS_P2;Temp;Humidity;BMP_temperature;BMP_pressure;BME280_temperature;BME280_humidity;BME280_pressure;Samples;Min_cycle;Max_cycle;Signal;HPM_P1;HPM_P2
2023/06/24 00:00:11;;;;;;;586.27;552.03;;;15.60;99.90;;;;;;5092135;28;20801;-71
2023/06/24 00:02:41;;;;;;;639.67;601.83;;;15.50;99.90;;;;;;5092721;28;20488;-71
2023/06/24 00:05:08;;;;;;;652.03;612.93;;;15.50;99.90;;;;;;5092911;28;20898;-71
2023/06/24 00:07:43;;;;;;;648.23;608.70;;;15.50;99.90;;;;;;5093141;28;20446;-70
2023/06/24 00:10:11;;;;;;;659.27;618.03;;;15.50;99.90;;;;;;5093382;28;20453;-71
2023/06/24 00:12:39;;;;;;;652.70;611.63;;;15.50;99.90;;;;;;5092825;28;20445;-71
2023/06/24 00:15:08;;;;;;;703.60;658.70;;;15.50;99.90;;;;;;5092732;28;20453;-71
2023/06/24 00:17:35;;;;;;;720.13;673.53;;;15.50;99.90;;;;;;5092268;28;20466;-71
2023/06/24 00:20:03;;;;;;;741.67;693.57;;;15.50;99.90;;;;;;5092884;28;20454;-71
2023/06/24 00:22:29;;;;;;;725.23;677.97;;;15.50;99.90;;;;;;5092375;28;20495;-71
2023/06/24 00:24:58;;;;;;;760.23;709.70;;;15.50;99.90;;;;;;5092596;28;20822;-71
2023/06/24 00:27:25;;;;;;;783.63;731.30;;;15.50;99.90;;;;;;5092785;28;20488;-70
2023/06/24 00:29:52;;;;;;;775.10;723.13;;;15.50;99.90;;;;;;5092625;28;20450;-70
2023/06/24 00:32:19;;;;;;;794.23;740.40;;;15.50;99.90;;;;;;5092311;28;20450;-70
2023/06/24 00:34:47;;;;;;;794.70;741.00;;;15.50;99.90;;;;;;5091136;28;20458;-70
2023/06/24 00:37:15;;;;;;;789.80;735.03;;;15.40;99.90;;;;;;5093017;28;20901;-70
2023/06/24 00:39:42;;;;;;;806.83;751.60;;;15.50;99.90;;;;;;5091894;28;20457;-70
2023/06/24 00:42:10;;;;;;;786.90;733.40;;;15.50;99.90;;;;;;5092556;28;20798;-70
2023/06/24 00:44:39;;;;;;;766.83;714.83;;;15.50;99.90;;;;;;5092322;28;20865;-70
2023/06/24 00:47:08;;;;;;;754.37;703.23;;;15.50;99.90;;;;;;5091991;28;20453;-70
2023/06/24 00:49:34;;;;;;;767.60;715.80;;;15.50;99.90;;;;;;5092254;28;20953;-70
2023/06/24 00:52:03;;;;;;;760.73;710.13;;;15.40;99.90;;;;;;5092742;28;20473;-70
2023/06/24 00:54:31;;;;;;;757.93;706.83;;;15.40;99.90;;;;;;5084350;28;20454;-70
2023/06/24 00:57:01;;;;;;;752.90;702.50;;;15.40;99.90;;;;;;5075383;28;20523;-70
2023/06/24 00:59:31;;;;;;;743.43;692.43;;;15.40;99.90;;;;;;5091971;28;20869;-70
2023/06/24 01:02:01;;;;;;;782.70;727.60;;;15.40;99.90;;;;;;5092298;28;20525;-70
2023/06/24 01:04:28;;;;;;;808.40;750.50;;;15.40;99.90;;;;;;5091606;28;20540;-70
2023/06/24 01:06:56;;;;;;;810.47;752.57;;;15.40;99.90;;;;;;5092354;28;20477;-70
2023/06/24 01:09:23;;;;;;;819.73;759.77;;;15.40;99.90;;;;;;5092096;28;20460;-70
2023/06/24 01:11:50;;;;;;;836.80;775.30;;;15.40;99.90;;;;;;5091519;28;20478;-70
2023/06/24 01:14:19;;;;;;;831.57;769.37;;;15.40;99.90;;;;;;5091740;28;20631;-70
2023/06/24 01:16:55;;;;;;;813.07;755.10;;;15.40;99.90;;;;;;5091715;28;20466;-70
2023/06/24 01:19:52;;;;;;;787.33;732.80;;;15.40;99.90;;;;;;5092244;28;20455;-70
2023/06/24 01:22:40;;;;;;;787.73;734.77;;;15.40;99.90;;;;;;5091348;28;20461;-70
2023/06/24 01:25:22;;;;;;;793.20;739.77;;;15.30;99.90;;;;;;5090428;28;20450;-70
2023/06/24 01:28:17;;;;;;;792.07;739.73;;;15.30;99.90;;;;;;5090476;28;21788;-70
2023/06/24 01:31:06;;;;;;;790.97;737.90;;;15.30;99.90;;;;;;5091458;28;20442;-70
2023/06/24 01:33:41;;;;;;;831.97;775.03;;;15.20;99.90;;;;;;5091827;28;20445;-70
2023/06/24 01:36:12;;;;;;;822.07;765.27;;;15.20;99.90;;;;;;5092378;28;20484;-70
2023/06/24 01:38:47;;;;;;;815.33;759.07;;;15.10;99.90;;;;;;5091468;28;20545;-70
2023/06/24 01:41:19;;;;;;;847.43;787.93;;;15.10;99.90;;;;;;5092103;28;20456;-70
2023/06/24 01:43:47;;;;;;;822.23;765.03;;;15.10;99.90;;;;;;5091276;28;20503;-70
2023/06/24 01:46:17;;;;;;;799.63;745.60;;;15.10;99.90;;;;;;5091003;28;20446;-70
2023/06/24 01:48:46;;;;;;;808.30;754.00;;;15.10;99.90;;;;;;5091959;28;20457;-70
2023/06/24 01:51:18;;;;;;;804.80;749.70;;;15.10;99.90;;;;;;5091026;28;20956;-70
2023/06/24 01:53:50;;;;;;;824.97;768.67;;;15.10;99.90;;;;;;5091169;28;20449;-70
2023/06/24 01:56:18;;;;;;;834.80;779.10;;;15.10;99.90;;;;;;5091125;28;20458;-70
2023/06/24 01:58:46;;;;;;;827.13;769.70;;;15.10;99.90;;;;;;5091757;28;20481;-70
2023/06/24 02:01:14;;;;;;;839.07;780.27;;;15.20;99.90;;;;;;5091983;28;20797;-70
2023/06/24 02:03:43;;;;;;;857.70;796.30;;;15.10;99.90;;;;;;5091542;28;20457;-70
2023/06/24 02:06:12;;;;;;;857.67;795.00;;;15.10;99.90;;;;;;5091631;28;20442;-70
2023/06/24 02:08:42;;;;;;;847.50;787.23;;;15.10;99.90;;;;;;5091412;28;20450;-70
2023/06/24 02:11:10;;;;;;;856.90;796.33;;;15.10;99.90;;;;;;5091285;28;20452;-70
2023/06/24 02:13:38;;;;;;;852.50;790.20;;;15.10;99.90;;;;;;5090939;28;20446;-70
2023/06/24 02:16:07;;;;;;;845.40;784.70;;;15.10;99.90;;;;;;5091414;28;20446;-70
2023/06/24 02:18:35;;;;;;;842.37;783.27;;;15.10;99.90;;;;;;5091052;28;20474;-70
2023/06/24 02:21:03;;;;;;;859.77;796.17;;;15.10;99.90;;;;;;5091193;28;20446;-70
2023/06/24 02:23:32;;;;;;;853.27;791.23;;;15.10;99.90;;;;;;5091937;28;20537;-70
2023/06/24 02:26:00;;;;;;;847.03;786.20;;;15.10;99.90;;;;;;5091162;28;20532;-70
2023/06/24 02:28:27;;;;;;;845.33;784.73;;;15.10;99.90;;;;;;5090841;28;20453;-70
2023/06/24 02:30:55;;;;;;;845.80;785.60;;;15.20;99.90;;;;;;5091961;28;20545;-70
2023/06/24 02:33:21;;;;;;;828.70;770.23;;;15.30;99.90;;;;;;5090573;28;20452;-70
2023/06/24 02:35:48;;;;;;;818.70;761.03;;;15.20;99.90;;;;;;5091191;28;20454;-70
2023/06/24 02:38:15;;;;;;;814.47;758.30;;;15.10;99.90;;;;;;5094260;28;20474;-70
2023/06/24 02:40:46;;;;;;;806.50;751.83;;;15.00;99.90;;;;;;5093849;28;20535;-70
2023/06/24 02:43:13;;;;;;;819.20;762.20;;;15.10;99.90;;;;;;5094315;28;20457;-70
2023/06/24 02:45:40;;;;;;;823.70;766.90;;;15.00;99.90;;;;;;5095141;28;20456;-70
2023/06/24 02:48:09;;;;;;;816.40;759.90;;;15.00;99.90;;;;;;5094506;28;20453;-70
2023/06/24 02:50:37;;;;;;;810.60;754.77;;;15.00;99.90;;;;;;5095114;28;20460;-70
2023/06/24 02:53:05;;;;;;;811.37;755.77;;;15.00;99.90;;;;;;5093855;28;21066;-70
2023/06/24 02:55:34;;;;;;;809.93;755.37;;;14.90;99.90;;;;;;5094653;28;20527;-70
2023/06/24 02:58:07;;;;;;;837.67;782.97;;;14.90;99.90;;;;;;5093922;28;20470;-70
2023/06/24 03:00:34;;;;;;;820.30;764.03;;;14.90;99.90;;;;;;5094698;28;20544;-70
2023/06/24 03:03:02;;;;;;;820.43;764.73;;;14.90;99.90;;;;;;5094505;28;20940;-70
2023/06/24 03:05:31;;;;;;;819.73;764.73;;;14.80;99.90;;;;;;5094092;28;20461;-70
2023/06/24 03:07:58;;;;;;;829.63;773.63;;;14.80;99.90;;;;;;5094973;28;20446;-70
2023/06/24 03:10:25;;;;;;;829.87;772.50;;;14.70;99.90;;;;;;5094766;28;20457;-71
2023/06/24 03:12:53;;;;;;;827.30;769.10;;;14.80;99.90;;;;;;5093908;28;20446;-71
2023/06/24 03:15:21;;;;;;;836.57;779.20;;;14.80;99.90;;;;;;5093076;28;20450;-71
2023/06/24 03:17:48;;;;;;;818.23;761.40;;;14.80;99.90;;;;;;5094133;28;20474;-70
2023/06/24 03:20:15;;;;;;;811.53;753.93;;;14.80;99.90;;;;;;5094287;28;20546;-70
2023/06/24 03:22:43;;;;;;;814.23;756.27;;;14.80;99.90;;;;;;5094413;28;20450;-70
2023/06/24 03:25:09;;;;;;;820.03;763.23;;;14.90;99.90;;;;;;5094003;28;20507;-71
2023/06/24 03:27:36;;;;;;;854.60;797.10;;;15.00;99.90;;;;;;5093839;28;20827;-71
2023/06/24 03:30:04;;;;;;;824.93;768.43;;;15.00;99.90;;;;;;5093321;28;20449;-71
2023/06/24 03:32:36;;;;;;;809.90;753.40;;;14.90;99.90;;;;;;5090660;28;20536;-71
2023/06/24 03:35:03;;;;;;;809.37;753.07;;;14.90;99.90;;;;;;5090113;28;20462;-71
2023/06/24 03:37:30;;;;;;;816.27;758.23;;;15.00;99.90;;;;;;5091773;28;20481;-71
2023/06/24 03:39:57;;;;;;;808.17;751.00;;;15.00;99.90;;;;;;5092379;28;20830;-71
2023/06/24 03:42:24;;;;;;;834.40;773.63;;;15.00;99.90;;;;;;5091846;28;20445;-71
2023/06/24 03:44:51;;;;;;;826.53;766.37;;;15.00;99.90;;;;;;5072762;28;20443;-71
2023/06/24 03:47:18;;;;;;;829.27;769.17;;;15.00;99.90;;;;;;5072500;28;20454;-71
2023/06/24 03:49:46;;;;;;;834.67;773.13;;;15.00;99.90;;;;;;5078353;28;20461;-71
2023/06/24 03:52:13;;;;;;;828.70;767.97;;;15.00;99.90;;;;;;5093264;28;20453;-71
2023/06/24 03:54:40;;;;;;;839.23;777.73;;;15.00;99.90;;;;;;5093303;28;20450;-71
2023/06/24 03:57:08;;;;;;;861.77;800.20;;;15.10;99.90;;;;;;5093509;28;20450;-72
2023/06/24 03:59:35;;;;;;;839.37;777.13;;;15.10;99.90;;;;;;5093848;28;20457;-73
2023/06/24 04:02:02;;;;;;;837.37;774.83;;;15.20;99.90;;;;;;5093784;28;20544;-72
2023/06/24 04:04:28;;;;;;;839.73;778.63;;;15.30;99.90;;;;;;5093089;28;20458;-73
2023/06/24 04:06:57;;;;;;;823.90;765.80;;;15.40;99.90;;;;;;5093749;28;20450;-73
2023/06/24 04:09:23;;;;;;;830.27;772.70;;;15.40;99.90;;;;;;5093130;28;20452;-73
2023/06/24 04:11:50;;;;;;;825.23;767.77;;;15.50;99.90;;;;;;5093521;28;20486;-73
2023/06/24 04:14:17;;;;;;;796.50;741.40;;;15.40;99.90;;;;;;5092512;28;20511;-73
2023/06/24 04:16:44;;;;;;;799.47;743.90;;;15.50;99.90;;;;;;5093532;28;20454;-72
2023/06/24 04:19:11;;;;;;;832.23;773.07;;;15.40;99.90;;;;;;5093114;28;20919;-73
2023/06/24 04:21:38;;;;;;;834.40;773.77;;;15.40;99.90;;;;;;5093859;28;20468;-72
2023/06/24 04:24:06;;;;;;;834.70;774.40;;;15.50;99.90;;;;;;5092546;28;20554;-73
2023/06/24 04:26:33;;;;;;;823.20;763.30;;;15.50;99.90;;;;;;5093404;28;20450;-72
2023/06/24 04:29:00;;;;;;;824.80;765.80;;;15.60;99.90;;;;;;5092957;28;20446;-72
2023/06/24 04:31:27;;;;;;;822.47;763.97;;;15.70;99.90;;;;;;5093165;28;20544;-71
2023/06/24 04:33:55;;;;;;;829.43;770.63;;;15.60;99.90;;;;;;5092427;28;20449;-72
2023/06/24 04:36:21;;;;;;;821.13;763.60;;;15.80;99.90;;;;;;5090609;28;20541;-72
2023/06/24 04:38:48;;;;;;;815.23;757.80;;;15.90;99.90;;;;;;5092663;28;20526;-72
2023/06/24 04:41:18;;;;;;;803.77;748.97;;;15.90;99.90;;;;;;5093155;28;20456;-72
2023/06/24 04:43:45;;;;;;;800.53;745.63;;;16.00;99.90;;;;;;5092547;28;20462;-73
2023/06/24 04:46:11;;;;;;;806.93;750.93;;;16.10;99.90;;;;;;5092650;28;20456;-72
2023/06/24 04:48:38;;;;;;;809.30;754.30;;;16.10;99.90;;;;;;5092213;28;20454;-72
2023/06/24 04:51:05;;;;;;;799.80;744.73;;;16.20;99.90;;;;;;5092731;28;20944;-72
2023/06/24 04:53:33;;;;;;;794.40;741.00;;;16.30;99.90;;;;;;5092964;28;20523;-72
2023/06/24 04:56:00;;;;;;;784.07;732.23;;;16.30;99.90;;;;;;5092479;28;20449;-72
2023/06/24 04:58:28;;;;;;;784.07;731.90;;;16.40;99.90;;;;;;5092591;28;20536;-72
2023/06/24 05:00:55;;;;;;;772.03;720.93;;;16.50;99.90;;;;;;5092785;28;20537;-72
2023/06/24 05:03:22;;;;;;;769.67;719.27;;;16.60;99.90;;;;;;5094028;28;20461;-72
2023/06/24 05:05:49;;;;;;;757.73;707.93;;;16.70;99.90;;;;;;5092368;28;20456;-72
2023/06/24 05:08:16;;;;;;;758.60;709.50;;;16.80;99.90;;;;;;5093131;28;20468;-73
2023/06/24 05:10:43;;;;;;;730.87;684.47;;;16.90;99.90;;;;;;5092650;28;20483;-73
2023/06/24 05:13:09;;;;;;;637.57;600.77;;;17.10;99.90;;;;;;5091346;28;20449;-73
2023/06/24 05:15:38;;;;;;;554.90;525.67;;;17.30;99.90;;;;;;5091740;28;20456;-73
2023/06/24 05:18:05;;;;;;;476.13;452.33;;;17.50;99.90;;;;;;5091834;28;20964;-73
2023/06/24 05:20:31;;;;;;;389.53;371.23;;;17.90;99.90;;;;;;5082773;28;20453;-73
2023/06/24 05:22:58;;;;;;;239.77;229.53;;;18.20;99.90;;;;;;5072300;28;20454;-73
2023/06/24 05:25:25;;;;;;;75.33;71.53;;;18.70;99.90;;;;;;5071608;28;20446;-72
2023/06/24 05:27:52;;;;;;;19.17;17.17;;;19.10;99.90;;;;;;5072738;28;20821;-72
2023/06/24 05:30:19;;;;;;;20.90;11.70;;;19.40;99.90;;;;;;5070427;28;20458;-71
2023/06/24 05:32:47;;;;;;;15.43;11.03;;;19.70;99.90;;;;;;5072450;28;20457;-71
2023/06/24 05:35:14;;;;;;;19.27;11.20;;;20.10;99.90;;;;;;5072152;28;20462;-71
2023/06/24 05:37:40;;;;;;;14.00;10.57;;;20.50;99.90;;;;;;5072674;28;20462;-71
2023/06/24 05:40:09;;;;;;;13.90;10.13;;;20.90;98.90;;;;;;5077991;28;20446;-71
2023/06/24 05:42:36;;;;;;;18.13;10.67;;;21.20;97.20;;;;;;5090883;28;20481;-71
2023/06/24 05:45:03;;;;;;;14.23;10.60;;;21.40;95.70;;;;;;5092116;28;20449;-71
2023/06/24 05:47:30;;;;;;;13.57;9.13;;;21.30;94.10;;;;;;5092237;28;20446;-71
2023/06/24 05:49:58;;;;;;;15.27;10.33;;;21.00;93.30;;;;;;5090815;28;20446;-67
2023/06/24 05:52:25;;;;;;;13.33;8.80;;;20.90;94.10;;;;;;5091997;28;20499;-67
2023/06/24 05:54:52;;;;;;;14.70;8.70;;;20.90;93.40;;;;;;5091175;28;20478;-67
2023/06/24 05:57:18;;;;;;;20.10;9.93;;;21.20;93.40;;;;;;5092072;28;20450;-67
2023/06/24 05:59:45;;;;;;;14.80;9.30;;;21.20;92.70;;;;;;5091740;28;20556;-67
2023/06/24 06:02:12;;;;;;;15.33;9.37;;;21.10;92.10;;;;;;5091851;28;20483;-67
2023/06/24 06:04:39;;;;;;;13.53;9.00;;;21.30;91.40;;;;;;5090870;28;20442;-67
2023/06/24 06:07:07;;;;;;;13.53;9.10;;;21.60;88.30;;;;;;5091431;28;20897;-67
2023/06/24 06:09:34;;;;;;;12.23;8.30;;;21.90;88.30;;;;;;5090504;28;20473;-67
2023/06/24 06:12:01;;;;;;;14.87;8.67;;;22.20;88.10;;;;;;5094364;28;20502;-65
2023/06/24 06:14:28;;;;;;;13.33;9.50;;;22.30;84.40;;;;;;5094073;28;20457;-64
2023/06/24 06:16:55;;;;;;;14.97;8.97;;;22.50;86.00;;;;;;5094554;28;20450;-65
2023/06/24 06:19:22;;;;;;;16.63;8.90;;;22.70;84.80;;;;;;5094718;28;20469;-64
2023/06/24 06:21:51;;;;;;;12.83;8.50;;;22.70;80.60;;;;;;5094948;28;20450;-64
2023/06/24 06:24:19;;;;;;;14.30;8.43;;;22.90;80.80;;;;;;5095113;28;20574;-65
2023/06/24 06:26:46;;;;;;;12.57;7.83;;;23.40;81.30;;;;;;5095098;28;20446;-65
2023/06/24 06:29:13;;;;;;;12.40;6.73;;;23.90;73.70;;;;;;5093928;28;20948;-65
2023/06/24 06:31:40;;;;;;;11.40;5.60;;;24.20;65.70;;;;;;5093683;28;20536;-64
2023/06/24 06:34:06;;;;;;;12.37;6.77;;;24.30;54.30;;;;;;5093296;28;20450;-65
2023/06/24 06:36:33;;;;;;;9.47;5.50;;;24.30;48.40;;;;;;5083036;28;20505;-64
2023/06/24 06:39:00;;;;;;;13.63;6.03;;;24.40;48.50;;;;;;5094099;28;20838;-65
2023/06/24 06:41:28;;;;;;;14.70;7.03;;;24.50;49.10;;;;;;5094924;28;20446;-64
2023/06/24 06:43:55;;;;;;;11.20;5.60;;;24.20;48.30;;;;;;5094806;28;20959;-64
2023/06/24 06:46:22;;;;;;;15.53;6.30;;;24.00;45.40;;;;;;5095132;28;20450;-64
2023/06/24 06:48:49;;;;;;;12.03;6.07;;;23.80;47.90;;;;;;5093975;28;20503;-64
2023/06/24 06:51:16;;;;;;;10.63;5.73;;;23.60;47.70;;;;;;5083960;28;20451;-64
2023/06/24 06:53:43;;;;;;;12.60;7.20;;;23.40;47.50;;;;;;5091289;28;20536;-64
2023/06/24 06:56:09;;;;;;;11.90;6.87;;;23.30;50.00;;;;;;5093023;28;20449;-64
2023/06/24 06:58:38;;;;;;;10.63;5.90;;;23.20;53.30;;;;;;5093423;28;20479;-64
2023/06/24 07:01:05;;;;;;;12.27;5.90;;;23.20;48.40;;;;;;5093126;28;20809;-64
2023/06/24 07:03:32;;;;;;;11.10;6.30;;;23.20;48.70;;;;;;5093403;28;20452;-64
2023/06/24 07:05:59;;;;;;;11.00;5.90;;;23.30;50.40;;;;;;5092809;28;20932;-64
2023/06/24 07:08:26;;;;;;;9.73;4.93;;;23.70;47.80;;;;;;5093714;28;20803;-64
2023/06/24 07:10:53;;;;;;;10.43;5.07;;;23.80;47.40;;;;;;5092091;28;20461;-64
2023/06/24 07:13:19;;;;;;;12.57;5.57;;;24.30;48.40;;;;;;5092886;28;20528;-64
2023/06/24 07:15:48;;;;;;;10.70;5.90;;;24.80;44.70;;;;;;5092208;28;20461;-64
2023/06/24 07:18:14;;;;;;;10.70;5.83;;;25.30;41.00;;;;;;5093299;28;20453;-64
2023/06/24 07:20:41;;;;;;;11.00;5.00;;;25.30;37.90;;;;;;5092884;28;20454;-64
2023/06/24 07:23:10;;;;;;;8.87;4.93;;;25.60;34.90;;;;;;5086318;28;20457;-65
2023/06/24 07:25:36;;;;;;;10.33;6.00;;;25.70;31.20;;;;;;5093224;28;20455;-65
2023/06/24 07:28:03;;;;;;;11.33;5.00;;;26.10;36.30;;;;;;5093934;28;20458;-65
2023/06/24 07:30:30;;;;;;;13.23;5.37;;;26.50;31.70;;;;;;5094207;28;20540;-65
2023/06/24 07:32:58;;;;;;;13.03;5.50;;;26.10;27.70;;;;;;5092868;28;20816;-64
2023/06/24 07:35:25;;;;;;;12.27;5.57;;;26.30;24.10;;;;;;5093695;28;20463;-65
2023/06/24 07:37:52;;;;;;;9.10;5.40;;;26.40;28.40;;;;;;5093864;28;20456;-65
2023/06/24 07:40:19;;;;;;;13.23;5.90;;;26.20;23.90;;;;;;5092947;28;20469;-65
2023/06/24 07:42:46;;;;;;;11.20;6.30;;;26.10;26.30;;;;;;5094098;28;20447;-65
2023/06/24 07:45:12;;;;;;;13.97;5.97;;;26.30;25.20;;;;;;5093352;28;20937;-64
2023/06/24 07:47:39;;;;;;;11.33;6.07;;;26.10;27.50;;;;;;5093297;28;20449;-64
2023/06/24 07:50:10;;;;;;;11.60;6.07;;;26.60;24.20;;;;;;5092997;28;20455;-64
2023/06/24 07:52:37;;;;;;;10.30;6.40;;;26.70;22.20;;;;;;5093390;28;20463;-64
2023/06/24 07:55:04;;;;;;;57.17;13.93;;;26.50;20.00;;;;;;5092214;28;20503;-65
2023/06/24 07:57:31;;;;;;;12.07;6.40;;;26.90;21.30;;;;;;5093733;28;20456;-65
2023/06/24 07:59:58;;;;;;;11.17;5.97;;;26.70;19.90;;;;;;5092360;28;20998;-65
2023/06/24 08:02:26;;;;;;;14.83;6.37;;;26.50;23.60;;;;;;5092877;28;20481;-65
2023/06/24 08:04:53;;;;;;;13.10;7.40;;;26.70;24.20;;;;;;5092087;28;20442;-65
2023/06/24 08:07:21;;;;;;;15.70;6.90;;;26.80;22.70;;;;;;5093952;28;20814;-65
2023/06/24 08:09:47;;;;;;;13.17;6.53;;;27.40;20.50;;;;;;5093136;28;20548;-65
2023/06/24 08:12:14;;;;;;;14.20;7.77;;;27.00;20.10;;;;;;5093565;28;20462;-65
2023/06/24 08:14:41;;;;;;;12.90;7.77;;;27.20;22.60;;;;;;5092453;28;20450;-65
2023/06/24 08:17:08;;;;;;;17.47;8.10;;;27.70;19.80;;;;;;5092717;28;20945;-65
2023/06/24 08:19:35;;;;;;;14.90;7.50;;;27.90;19.00;;;;;;5091818;28;20473;-66
2023/06/24 08:22:02;;;;;;;13.97;7.50;;;27.70;17.30;;;;;;5092651;28;20446;-65
2023/06/24 08:24:31;;;;;;;15.17;7.77;;;27.60;17.20;;;;;;5091878;28;20454;-65
2023/06/24 08:26:58;;;;;;;14.60;8.97;;;27.60;17.20;;;;;;5090722;28;20815;-65
2023/06/24 08:29:25;;;;;;;15.70;7.50;;;27.40;20.20;;;;;;5092540;28;20449;-65
2023/06/24 08:31:52;;;;;;;12.47;8.27;;;27.50;17.20;;;;;;5092577;28;20454;-65
2023/06/24 08:34:19;;;;;;;13.77;8.50;;;27.60;17.20;;;;;;5091143;28;20460;-65
2023/06/24 08:36:45;;;;;;;18.30;8.43;;;27.90;17.30;;;;;;5092585;28;20456;-67
2023/06/24 08:39:12;;;;;;;12.73;7.97;;;28.10;15.60;;;;;;5092754;28;20470;-64
2023/06/24 08:41:40;;;;;;;13.63;8.80;;;27.90;12.40;;;;;;5092133;28;20476;-64
2023/06/24 08:44:08;;;;;;;14.60;8.77;;;27.90;17.40;;;;;;5082753;28;20450;-65
2023/06/24 08:46:35;;;;;;;13.50;7.10;;;28.20;16.40;;;;;;5090756;28;20446;-65
2023/06/24 08:49:10;;;;;;;13.50;8.70;;;28.20;15.10;;;;;;5090776;28;20454;-64
2023/06/24 08:51:41;;;;;;;17.87;8.53;;;28.00;17.50;;;;;;5090643;28;20456;-64
2023/06/24 08:54:10;;;;;;;12.17;8.17;;;28.20;17.60;;;;;;5089578;28;20450;-64
2023/06/24 08:56:38;;;;;;;13.50;7.33;;;29.20;14.70;;;;;;5089717;28;20450;-64
2023/06/24 08:59:07;;;;;;;13.50;7.70;;;29.90;16.70;;;;;;5090200;28;20520;-64
2023/06/24 09:01:34;;;;;;;11.83;7.37;;;30.30;11.00;;;;;;5090424;28;20553;-64
2023/06/24 09:04:01;;;;;;;18.60;8.60;;;30.40;12.80;;;;;;5089650;28;20453;-64
2023/06/24 09:06:27;;;;;;;12.13;7.60;;;30.50;8.70;;;;;;5090388;28;20454;-64
2023/06/24 09:08:55;;;;;;;13.40;7.17;;;31.10;6.00;;;;;;5089885;28;20967;-64
2023/06/24 09:11:25;;;;;;;16.00;7.20;;;31.30;4.30;;;;;;5090582;28;20452;-64
2023/06/24 09:13:56;;;;;;;14.83;8.60;;;31.10;8.30;;;;;;5088986;28;20424;-64
2023/06/24 09:16:25;;;;;;;13.47;8.50;;;31.30;5.10;;;;;;5090752;28;20449;-64
2023/06/24 09:18:52;;;;;;;15.40;9.40;;;31.10;3.60;;;;;;5090689;28;20474;-64
2023/06/24 09:21:24;;;;;;;16.73;7.67;;;30.90;6.70;;;;;;5090263;28;20898;-64
2023/06/24 09:23:55;;;;;;;12.67;7.77;;;30.70;1.80;;;;;;5089387;28;20467;-64
2023/06/24 09:26:24;;;;;;;12.80;8.60;;;30.30;3.20;;;;;;5089818;28;20425;-64
2023/06/24 09:28:51;;;;;;;12.33;7.87;;;30.10;3.00;;;;;;5088262;28;20458;-64
2023/06/24 09:31:19;;;;;;;14.47;8.57;;;30.10;5.60;;;;;;5091610;28;20450;-65
2023/06/24 09:33:48;;;;;;;11.60;7.33;;;30.10;1.00;;;;;;5091617;28;20454;-65
2023/06/24 09:36:15;;;;;;;11.27;7.37;;;29.80;2.90;;;;;;5090181;28;20453;-65
2023/06/24 09:38:44;;;;;;;14.07;8.03;;;30.40;3.50;;;;;;5092002;28;20453;-65
2023/06/24 09:41:11;;;;;;;12.00;7.47;;;31.10;2.30;;;;;;5092356;28;20526;-64
2023/06/24 09:43:39;;;;;;;17.87;8.43;;;31.30;1.00;;;;;;5091452;28;20450;-64
2023/06/24 09:46:07;;;;;;;8.27;4.53;;;31.40;1.00;;;;;;5092214;28;20919;-65
2023/06/24 09:48:34;;;;;;;9.80;4.97;;;31.60;1.00;;;;;;5093427;28;20499;-65
2023/06/24 09:51:04;;;;;;;10.40;5.10;;;31.70;1.00;;;;;;5095541;28;20453;-64
2023/06/24 09:53:32;;;;;;;11.43;4.87;;;31.70;1.00;;;;;;5095870;28;20450;-65
2023/06/24 09:56:01;;;;;;;9.47;5.00;;;32.10;1.00;;;;;;5094867;28;20452;-64
2023/06/24 09:58:29;;;;;;;11.50;5.77;;;32.30;1.00;;;;;;5094874;28;20925;-64
2023/06/24 10:00:56;;;;;;;14.23;5.77;;;32.30;1.00;;;;;;5095334;28;21071;-64
2023/06/24 10:03:23;;;;;;;9.83;5.53;;;32.20;1.00;;;;;;5095751;28;20874;-64
2023/06/24 10:05:51;;;;;;;13.63;6.27;;;31.70;1.00;;;;;;5093558;28;20472;-65
2023/06/24 10:08:20;;;;;;;9.23;5.50;;;31.80;1.00;;;;;;5095719;28;20472;-64
2023/06/24 10:10:47;;;;;;;13.40;5.80;;;31.90;1.00;;;;;;5095025;28;20427;-64
2023/06/24 10:13:14;;;;;;;10.13;5.37;;;31.40;1.00;;;;;;5094744;28;20446;-64
2023/06/24 10:15:41;;;;;;;19.83;5.67;;;32.50;1.00;;;;;;5095393;28;20517;-64
2023/06/24 10:18:36;;;;;;;15.60;5.60;;;32.70;1.00;;;;;;5095662;28;20544;-65
2023/06/24 10:21:03;;;;;;;9.37;5.20;;;32.90;1.00;;;;;;5094689;28;20980;-65
2023/06/24 10:23:41;;;;;;;8.37;4.73;;;33.60;1.00;;;;;;5093172;28;20446;-65
2023/06/24 10:26:22;;;;;;;6.80;3.60;;;33.00;1.00;;;;;;5094623;28;20450;-65
2023/06/24 10:29:17;;;;;;;10.70;4.70;;;32.70;1.00;;;;;;5094247;28;20453;-65
2023/06/24 10:31:54;;;;;;;8.63;4.23;;;32.60;1.00;;;;;;5093766;28;20428;-65
2023/06/24 10:34:28;;;;;;;6.80;3.60;;;33.20;1.00;;;;;;5093803;28;20432;-65
2023/06/24 10:36:55;;;;;;;13.63;5.07;;;33.00;1.00;;;;;;5091695;28;20813;-64
2023/06/24 10:39:54;;;;;;;7.40;4.63;;;32.90;1.00;;;;;;5093811;28;20716;-64
2023/06/24 10:42:42;;;;;;;11.30;5.63;;;32.70;1.00;;;;;;5094468;28;20428;-64
2023/06/24 10:45:20;;;;;;;35.43;8.30;;;32.30;1.00;;;;;;5094016;28;20804;-63
2023/06/24 10:47:49;;;;;;;8.83;5.20;;;32.60;1.00;;;;;;5091700;28;20861;-64
2023/06/24 10:50:17;;;;;;;7.70;4.53;;;32.70;1.00;;;;;;5092442;28;20537;-64
2023/06/24 10:52:45;;;;;;;7.90;4.73;;;33.80;1.00;;;;;;5092405;28;20519;-64
2023/06/24 10:55:15;;;;;;;8.83;3.43;;;34.10;1.00;;;;;;5092340;28;20432;-64
2023/06/24 10:57:43;;;;;;;8.73;5.40;;;33.80;1.00;;;;;;5093340;28;20448;-64
2023/06/24 11:00:10;;;;;;;8.20;4.60;;;33.30;1.00;;;;;;5092642;28;20539;-64
2023/06/24 11:02:37;;;;;;;10.37;4.33;;;33.60;1.00;;;;;;5093481;28;20456;-66
2023/06/24 11:05:05;;;;;;;7.43;3.57;;;33.90;1.00;;;;;;5092427;28;20454;-65
2023/06/24 11:07:34;;;;;;;7.87;3.77;;;34.10;1.00;;;;;;5092592;28;20491;-65
2023/06/24 11:10:04;;;;;;;14.03;3.70;;;33.70;1.00;;;;;;5091960;28;20446;-64
2023/06/24 11:12:34;;;;;;;7.83;3.90;;;33.40;1.00;;;;;;5091998;28;20839;-64
2023/06/24 11:15:02;;;;;;;7.27;3.50;;;34.20;1.00;;;;;;5092760;28;20454;-65
2023/06/24 11:17:29;;;;;;;7.97;4.20;;;33.80;1.00;;;;;;5093694;28;20454;-65
2023/06/24 11:19:58;;;;;;;7.67;4.87;;;33.70;1.00;;;;;;5093292;28;20872;-64
2023/06/24 11:22:25;;;;;;;7.00;3.20;;;32.60;1.00;;;;;;5093268;28;20457;-65
2023/06/24 11:24:52;;;;;;;8.20;4.50;;;33.60;1.00;;;;;;5093897;28;20457;-68
2023/06/24 11:27:26;;;;;;;9.47;3.97;;;33.40;1.00;;;;;;5094397;28;20449;-67
2023/06/24 11:29:54;;;;;;;7.40;3.37;;;34.20;1.00;;;;;;5094297;28;20420;-68
2023/06/24 11:32:22;;;;;;;9.10;3.70;;;33.20;1.00;;;;;;5094500;28;20454;-68
2023/06/24 11:34:49;;;;;;;7.20;3.50;;;33.70;1.00;;;;;;5093338;28;20429;-66
2023/06/24 11:37:18;;;;;;;7.27;3.47;;;33.40;1.00;;;;;;5094515;28;20460;-68
2023/06/24 11:39:45;;;;;;;6.27;3.20;;;34.10;1.00;;;;;;5092255;28;20474;-66
2023/06/24 11:42:12;;;;;;;7.70;3.40;;;33.90;1.00;;;;;;5094016;28;20532;-67
2023/06/24 11:44:43;;;;;;;8.73;3.93;;;34.60;1.00;;;;;;5092872;28;20420;-65
2023/06/24 11:47:12;;;;;;;10.23;3.27;;;34.00;1.00;;;;;;5093977;28;20446;-67
2023/06/24 11:49:52;;;;;;;5.60;2.80;;;33.70;1.00;;;;;;5093814;28;20518;-66
2023/06/24 11:52:19;;;;;;;6.80;3.60;;;34.20;1.00;;;;;;5093417;28;20446;-65
2023/06/24 11:54:46;;;;;;;6.87;2.37;;;34.30;1.00;;;;;;5093792;28;20454;-65
2023/06/24 11:57:13;;;;;;;6.97;2.70;;;34.40;1.00;;;;;;5093721;28;20802;-65
2023/06/24 11:59:40;;;;;;;5.60;2.50;;;34.90;1.00;;;;;;5093090;28;20453;-66
2023/06/24 12:02:07;;;;;;;6.33;2.80;;;34.40;1.00;;;;;;5092503;28;20435;-67
2023/06/24 12:04:36;;;;;;;6.90;2.80;;;35.30;1.00;;;;;;5091678;28;20533;-67
2023/06/24 12:07:04;;;;;;;6.20;2.33;;;35.80;1.00;;;;;;5093244;28;20427;-67
2023/06/24 12:09:31;;;;;;;10.13;3.60;;;35.60;1.00;;;;;;5091532;28;20428;-68
2023/06/24 12:11:58;;;;;;;7.17;3.23;;;36.20;1.00;;;;;;5092698;28;20476;-67
2023/06/24 12:14:25;;;;;;;6.87;3.37;;;35.90;1.00;;;;;;5092199;28;20461;-67
2023/06/24 12:16:51;;;;;;;6.20;2.93;;;35.30;1.00;;;;;;5093522;28;20920;-68
2023/06/24 12:19:20;;;;;;;9.87;3.40;;;34.70;1.00;;;;;;5091646;28;20424;-67
2023/06/24 12:21:48;;;;;;;6.20;2.70;;;34.40;1.00;;;;;;5091825;28;20477;-67
2023/06/24 12:24:15;;;;;;;9.17;3.20;;;34.20;1.00;;;;;;5092724;28;20452;-69
2023/06/24 12:26:42;;;;;;;6.00;2.80;;;33.80;1.00;;;;;;5089560;28;20442;-65
2023/06/24 12:29:08;;;;;;;5.90;3.00;;;33.90;1.00;;;;;;5088223;28;20460;-74
2023/06/24 12:31:35;;;;;;;6.50;2.90;;;33.10;1.00;;;;;;5092336;28;20536;-71
2023/06/24 12:34:02;;;;;;;5.53;2.37;;;33.60;1.00;;;;;;5092580;28;20934;-70